Nancy M — WDF3398 — position and weather

sailwx.info

Track history (hours):
 
Tides and Currents Weather Stations Pressure Air Temp Water Temp Dewpoint Dewpoint Depression Visibility Wind Speed Wind Dir Waves Ship Positions

Nancy M

Owner: MANSON CONSTRUCTION CO., SEATTLE, WA. More information available from US FCC via Universal Licensing System and Coast Guard Vessel Documentation Center.

Last reported at 2017-Jan-20 23:29 UTC. Time now 2017-Jan-21 00:13 UTC.
Position N 47°14' W 122°35'.

Length 24 m; draft 4 m.

Type: Tug. MMSI: 367439390.

Date/timePositionNaut miles runAvg speedWind from/ knotsBaromVisibWave heightAir tempDewpointWater temp
2017-Jan-20 23:29N 47°14' W 122°35'5 5.6
2017-Jan-20 22:34N 47°19' W 122°31'5 4.8
2017-Jan-20 21:25N 47°16' W 122°24'0 0.4
2017-Jan-20 20:18N 47°16' W 122°24'1 1.3
2017-Jan-20 19:33N 47°17' W 122°25'1 1.2
2017-Jan-20 18:33N 47°16' W 122°24'0 0.2
2017-Jan-20 16:33N 47°16' W 122°25'0 0.0
2017-Jan-20 10:21N 47°16' W 122°24'1 1.7
2017-Jan-20 09:31N 47°17' W 122°26'1 1.4
2017-Jan-20 08:32N 47°16' W 122°24'0 0.1
2017-Jan-20 07:30N 47°16' W 122°24'0 0.3
2017-Jan-20 06:31N 47°17' W 122°25'0 0.0
2017-Jan-20 01:20N 47°16' W 122°25'0 0.0
2017-Jan-20 00:32N 47°16' W 122°25'0 0.1
2017-Jan-19 20:25N 47°16' W 122°24'3 3.0
2017-Jan-19 19:33N 47°18' W 122°27'2 2.0
2017-Jan-19 18:22N 47°16' W 122°24'0 0.1
2017-Jan-19 16:32N 47°16' W 122°24'0 0.0
2017-Jan-19 15:16N 47°16' W 122°24'0 0.0
2017-Jan-19 14:26N 47°16' W 122°25'1 1.2
2017-Jan-19 13:32N 47°17' W 122°25'0 0.1
2017-Jan-19 10:33N 47°17' W 122°25'1 1.1
2017-Jan-19 09:31N 47°16' W 122°24'1 1.2
2017-Jan-19 08:32N 47°17' W 122°25'1 0.4
2017-Jan-19 06:22N 47°16' W 122°25'0 0.0
2017-Jan-19 04:24N 47°17' W 122°24'1 0.5
2017-Jan-19 03:08N 47°17' W 122°25'2 3.8
2017-Jan-19 02:34N 47°18' W 122°28'3 2.0
2017-Jan-19 01:11N 47°16' W 122°25'0 0.0
2017-Jan-19 00:14N 47°16' W 122°25'0 0.0
2017-Jan-18 23:05N 47°16' W 122°25'0 0.0
2017-Jan-18 22:20N 47°16' W 122°25'0 0.0
2017-Jan-18 21:15N 47°16' W 122°25'0 0.0
2017-Jan-18 20:32N 47°16' W 122°25'0 0.0
2017-Jan-18 19:33N 47°16' W 122°25'2 2.4
2017-Jan-18 18:33N 47°18' W 122°27'3 2.5
2017-Jan-18 17:32N 47°16' W 122°24'0 0.3
2017-Jan-18 16:33N 47°16' W 122°25'0 0.0
2017-Jan-18 15:33N 47°16' W 122°25'0 0.1
2017-Jan-18 14:16N 47°16' W 122°24'3 4.0
2017-Jan-18 13:33N 47°18' W 122°28'3 2.2
2017-Jan-18 12:17N 47°16' W 122°24'0 0.1
2017-Jan-18 11:33N 47°16' W 122°25'0 0.0
2017-Jan-18 10:31N 47°16' W 122°25'0 0.0
2017-Jan-18 09:33N 47°16' W 122°25'0 0.0
2017-Jan-18 08:33N 47°16' W 122°25'0 0.0
2017-Jan-18 07:17N 47°16' W 122°25'0 0.3
2017-Jan-18 06:15N 47°16' W 122°24'0 0.4
2017-Jan-18 05:33N 47°16' W 122°25'1 1.5
2017-Jan-18 04:33N 47°17' W 122°26'1 0.4
2017-Jan-18 01:11N 47°17' W 122°25'5 8.4
2017-Jan-18 00:33N 47°22' W 122°24'1111.2
2017-Jan-17 23:33N 47°33' W 122°25'3 3.1
2017-Jan-17 22:33N 47°33' W 122°21'0 0.0
2017-Jan-17 21:33N 47°33' W 122°21'0 0.0
2017-Jan-17 20:33N 47°33' W 122°21'0 0.0
2017-Jan-17 19:33N 47°33' W 122°21'0 0.0
2017-Jan-17 18:32N 47°33' W 122°21'0 0.0
2017-Jan-17 17:33N 47°33' W 122°21'0 0.0
2017-Jan-17 16:33N 47°33' W 122°21'0 0.0
2017-Jan-17 15:34N 47°33' W 122°21'0 0.0
2017-Jan-17 14:33N 47°33' W 122°21'0 0.0
2017-Jan-17 13:33N 47°33' W 122°21'0 0.0
2017-Jan-17 12:32N 47°33' W 122°21'0 0.0
2017-Jan-17 11:33N 47°33' W 122°21'0 0.0
2017-Jan-17 10:33N 47°33' W 122°21'0 0.0
2017-Jan-17 09:33N 47°33' W 122°21'0 0.0
2017-Jan-17 08:32N 47°33' W 122°21'0 0.0
2017-Jan-17 07:33N 47°33' W 122°21'0 0.0
2017-Jan-17 06:33N 47°33' W 122°21'0 0.0
2017-Jan-17 05:33N 47°33' W 122°21'0 0.0
2017-Jan-17 04:34N 47°33' W 122°21'0 0.0
2017-Jan-17 03:33N 47°33' W 122°21'0 0.0
2017-Jan-17 02:33N 47°33' W 122°21'1 1.1
2017-Jan-17 01:34N 47°34' W 122°21'6 5.5
2017-Jan-17 00:33N 47°29' W 122°24'9 8.7
2017-Jan-16 23:33N 47°20' W 122°24'4 3.7
2017-Jan-16 22:33N 47°18' W 122°29'5 4.5
2017-Jan-16 21:32N 47°15' W 122°34'4 0.8
2017-Jan-16 16:28N 47°11' W 122°36'8 8.9
2017-Jan-16 15:33N 47°19' W 122°33'4 4.5
2017-Jan-16 14:33N 47°18' W 122°27'10 9.5
2017-Jan-16 13:33N 47°27' W 122°23'8 8.0
2017-Jan-16 12:34N 47°35' W 122°22'2 1.9
2017-Jan-16 11:33N 47°33' W 122°21'0 0.0
2017-Jan-16 10:33N 47°33' W 122°21'0 0.0
2017-Jan-16 09:33N 47°33' W 122°21'0 0.0
2017-Jan-16 08:33N 47°33' W 122°21'0 0.0
2017-Jan-16 07:33N 47°33' W 122°21'0 0.0
2017-Jan-16 06:33N 47°33' W 122°21'0 0.0
2017-Jan-16 05:33N 47°33' W 122°21'0 0.0
2017-Jan-16 04:34N 47°33' W 122°21'0 0.0
2017-Jan-16 03:33N 47°33' W 122°21'0 0.0
2017-Jan-16 02:33N 47°33' W 122°21'0 0.0
2017-Jan-16 01:33N 47°33' W 122°21'0 0.0
2017-Jan-16 00:34N 47°33' W 122°21'0 0.0
2017-Jan-15 23:34N 47°33' W 122°21'0 0.0
2017-Jan-15 22:33N 47°33' W 122°21'0 0.0
2017-Jan-15 21:33N 47°33' W 122°21'0 0.0
2017-Jan-15 20:33N 47°33' W 122°21'0 0.0
2017-Jan-15 19:34N 47°33' W 122°21'0 0.0
2017-Jan-15 18:33N 47°33' W 122°21'0 0.0
2017-Jan-15 17:33N 47°33' W 122°21'0 0.0
2017-Jan-15 16:34N 47°33' W 122°21'0 0.0
2017-Jan-15 15:33N 47°33' W 122°21'0 0.0
2017-Jan-15 14:34N 47°33' W 122°21'0 0.0
2017-Jan-15 13:34N 47°33' W 122°21'0 0.0
2017-Jan-15 12:34N 47°33' W 122°21'0 0.0
2017-Jan-15 11:33N 47°33' W 122°21'0 0.0
2017-Jan-15 10:33N 47°33' W 122°21'0 0.0
2017-Jan-15 09:33N 47°33' W 122°21'0 0.0
2017-Jan-15 08:33N 47°33' W 122°21'0 0.0
2017-Jan-15 07:34N 47°33' W 122°21'0 0.0
2017-Jan-15 06:33N 47°33' W 122°21'0 0.0
2017-Jan-15 05:33N 47°33' W 122°21'0 0.0
2017-Jan-15 04:34N 47°33' W 122°21'0 0.0
2017-Jan-15 03:33N 47°33' W 122°21'0 0.0
2017-Jan-15 02:33N 47°33' W 122°21'0 0.0
2017-Jan-15 01:33N 47°33' W 122°21'0 0.0
2017-Jan-15 00:33N 47°33' W 122°21'0 0.0
2017-Jan-14 23:33N 47°33' W 122°21'0 0.0
2017-Jan-14 22:33N 47°33' W 122°21'0 0.0
2017-Jan-14 21:34N 47°33' W 122°21'0 0.0
2017-Jan-14 20:33N 47°33' W 122°21'0 0.0
2017-Jan-14 19:33N 47°33' W 122°21'0 0.0
2017-Jan-14 18:33N 47°33' W 122°21'0 0.0
2017-Jan-14 17:34N 47°33' W 122°21'0 0.0
2017-Jan-14 16:33N 47°33' W 122°21'0 0.0
2017-Jan-14 15:34N 47°33' W 122°21'0 0.0
2017-Jan-14 14:33N 47°33' W 122°21'0 0.0
2017-Jan-14 13:33N 47°33' W 122°21'0 0.0
2017-Jan-14 12:34N 47°33' W 122°21'0 0.0
2017-Jan-14 11:33N 47°33' W 122°21'0 0.0
2017-Jan-14 10:33N 47°33' W 122°21'0 0.0
2017-Jan-14 09:34N 47°33' W 122°21'0 0.0
2017-Jan-14 08:33N 47°33' W 122°21'0 0.0
2017-Jan-14 07:34N 47°33' W 122°21'0 0.0
2017-Jan-14 06:33N 47°33' W 122°21'0 0.0
2017-Jan-14 05:34N 47°33' W 122°21'0 0.0
2017-Jan-14 04:33N 47°33' W 122°21'0 0.0
2017-Jan-14 03:33N 47°33' W 122°21'0 0.0
2017-Jan-13 23:33N 47°33' W 122°21'0 0.0
2017-Jan-13 22:33N 47°33' W 122°21'0 0.0
2017-Jan-13 21:33N 47°33' W 122°21'0 0.0
2017-Jan-13 20:34N 47°33' W 122°21'0 0.0
2017-Jan-13 19:33N 47°33' W 122°21'0 0.0
2017-Jan-13 18:34N 47°33' W 122°21'0 0.0
2017-Jan-13 17:33N 47°33' W 122°21'0 0.0
2017-Jan-13 16:33N 47°33' W 122°21'0 0.0
2017-Jan-13 15:33N 47°33' W 122°21'0 0.0
2017-Jan-13 14:34N 47°33' W 122°21'0 0.0
2017-Jan-13 13:33N 47°33' W 122°21'0 0.0
2017-Jan-13 12:34N 47°33' W 122°21'0 0.0
2017-Jan-13 11:33N 47°33' W 122°21'0 0.0
2017-Jan-13 10:34N 47°33' W 122°21'0 0.0
2017-Jan-13 09:34N 47°33' W 122°21'0 0.0
2017-Jan-13 08:33N 47°33' W 122°21'0 0.0
2017-Jan-13 07:33N 47°33' W 122°21'0 0.0
2017-Jan-13 06:33N 47°33' W 122°21'0 0.0
2017-Jan-13 05:32N 47°33' W 122°21'0 0.0
2017-Jan-13 04:33N 47°33' W 122°21'0 0.0
2017-Jan-13 03:32N 47°33' W 122°21'0 0.0
2017-Jan-13 02:33N 47°33' W 122°21'0 0.0
2017-Jan-13 01:33N 47°33' W 122°21'0 0.0
2017-Jan-13 00:34N 47°33' W 122°21'0 0.0
2017-Jan-12 23:33N 47°33' W 122°21'0 0.0
2017-Jan-12 22:33N 47°33' W 122°21'0 0.0
2017-Jan-12 21:33N 47°33' W 122°21'0 0.0
2017-Jan-12 20:33N 47°33' W 122°21'0 0.0
2017-Jan-12 19:34N 47°33' W 122°21'0 0.0
2017-Jan-12 18:34N 47°33' W 122°21'0 0.0
2017-Jan-12 17:33N 47°33' W 122°21'0 0.0
2017-Jan-12 16:33N 47°33' W 122°21'0 0.0
2017-Jan-12 15:33N 47°33' W 122°21'0 0.0
2017-Jan-12 14:33N 47°33' W 122°21'0 0.0
2017-Jan-12 13:34N 47°33' W 122°21'0 0.0
2017-Jan-12 12:34N 47°33' W 122°21'0 0.0
2017-Jan-12 11:34N 47°33' W 122°21'0 0.0
2017-Jan-12 10:33N 47°33' W 122°21'0 0.0
2017-Jan-12 09:33N 47°33' W 122°21'0 0.0
2017-Jan-12 08:33N 47°33' W 122°21'0 0.0
2017-Jan-12 07:34N 47°33' W 122°21'0 0.0
2017-Jan-12 06:33N 47°33' W 122°21'0 0.0
2017-Jan-12 05:34N 47°33' W 122°21'0 0.0
2017-Jan-12 04:34N 47°33' W 122°21'0 0.0
2017-Jan-12 03:33N 47°33' W 122°21'0 0.0
2017-Jan-12 02:33N 47°33' W 122°21'0 0.0
2017-Jan-12 01:34N 47°33' W 122°21'0 0.0
2017-Jan-12 00:34N 47°33' W 122°21'0 0.0
2017-Jan-11 23:33N 47°33' W 122°21'0 0.0
2017-Jan-11 22:33N 47°33' W 122°21'0 0.0
2017-Jan-11 21:33N 47°33' W 122°21'0 0.0
2017-Jan-11 20:33N 47°33' W 122°21'0 0.0
2017-Jan-11 19:33N 47°33' W 122°21'0 0.0
2017-Jan-11 18:33N 47°33' W 122°21'0 0.0
2017-Jan-11 17:34N 47°33' W 122°21'0 0.0
2017-Jan-11 16:33N 47°33' W 122°21'0 0.0
2017-Jan-11 15:34N 47°33' W 122°21'0 0.0
2017-Jan-11 14:33N 47°33' W 122°21'0 0.0
2017-Jan-11 13:34N 47°33' W 122°21'0 0.0
2017-Jan-11 12:33N 47°33' W 122°21'0 0.0
2017-Jan-11 11:33N 47°33' W 122°21'0 0.0
2017-Jan-11 10:33N 47°33' W 122°21'0 0.0
2017-Jan-11 09:33N 47°33' W 122°21'0 0.0
2017-Jan-11 08:34N 47°33' W 122°21'0 0.0
2017-Jan-11 07:33N 47°33' W 122°21'0 0.0
2017-Jan-11 06:33N 47°33' W 122°21'0 0.0
2017-Jan-11 05:34N 47°33' W 122°21'0 0.0
2017-Jan-11 04:33N 47°33' W 122°21'0 0.0
2017-Jan-11 03:34N 47°33' W 122°21'0 0.0
2017-Jan-11 02:33N 47°33' W 122°21'0 0.0
2017-Jan-11 01:34N 47°33' W 122°21'0 0.0
2017-Jan-11 00:33N 47°33' W 122°21'0 0.0
2017-Jan-10 23:34N 47°33' W 122°21'  
Track history (hours):
 
Tides and Currents Weather Stations Pressure Air Temp Water Temp Dewpoint Dewpoint Depression Visibility Wind Speed Wind Dir Waves Ship Positions

Nancy M

Owner: MANSON CONSTRUCTION CO., SEATTLE, WA. More information available from US FCC via Universal Licensing System and Coast Guard Vessel Documentation Center.

Last reported at 2017-Jan-20 23:29 UTC. Time now 2017-Jan-21 00:13 UTC.
Position N 47°14' W 122°35'.

Length 24 m; draft 4 m.

Type: Tug. MMSI: 367439390.

Date/timePositionNaut miles runAvg speedWind from/ knotsBaromVisibWave heightAir tempDewpointWater temp
2017-Jan-20 23:29N 47°14' W 122°35'5 5.6
2017-Jan-20 22:34N 47°19' W 122°31'5 4.8
2017-Jan-20 21:25N 47°16' W 122°24'0 0.4
2017-Jan-20 20:18N 47°16' W 122°24'1 1.3
2017-Jan-20 19:33N 47°17' W 122°25'1 1.2
2017-Jan-20 18:33N 47°16' W 122°24'0 0.2
2017-Jan-20 16:33N 47°16' W 122°25'0 0.0
2017-Jan-20 10:21N 47°16' W 122°24'1 1.7
2017-Jan-20 09:31N 47°17' W 122°26'1 1.4
2017-Jan-20 08:32N 47°16' W 122°24'0 0.1
2017-Jan-20 07:30N 47°16' W 122°24'0 0.3
2017-Jan-20 06:31N 47°17' W 122°25'0 0.0
2017-Jan-20 01:20N 47°16' W 122°25'0 0.0
2017-Jan-20 00:32N 47°16' W 122°25'0 0.1
2017-Jan-19 20:25N 47°16' W 122°24'3 3.0
2017-Jan-19 19:33N 47°18' W 122°27'2 2.0
2017-Jan-19 18:22N 47°16' W 122°24'0 0.1
2017-Jan-19 16:32N 47°16' W 122°24'0 0.0
2017-Jan-19 15:16N 47°16' W 122°24'0 0.0
2017-Jan-19 14:26N 47°16' W 122°25'1 1.2
2017-Jan-19 13:32N 47°17' W 122°25'0 0.1
2017-Jan-19 10:33N 47°17' W 122°25'1 1.1
2017-Jan-19 09:31N 47°16' W 122°24'1 1.2
2017-Jan-19 08:32N 47°17' W 122°25'1 0.4
2017-Jan-19 06:22N 47°16' W 122°25'0 0.0
2017-Jan-19 04:24N 47°17' W 122°24'1 0.5
2017-Jan-19 03:08N 47°17' W 122°25'2 3.8
2017-Jan-19 02:34N 47°18' W 122°28'3 2.0
2017-Jan-19 01:11N 47°16' W 122°25'0 0.0
2017-Jan-19 00:14N 47°16' W 122°25'0 0.0
2017-Jan-18 23:05N 47°16' W 122°25'0 0.0
2017-Jan-18 22:20N 47°16' W 122°25'0 0.0
2017-Jan-18 21:15N 47°16' W 122°25'0 0.0
2017-Jan-18 20:32N 47°16' W 122°25'0 0.0
2017-Jan-18 19:33N 47°16' W 122°25'2 2.4
2017-Jan-18 18:33N 47°18' W 122°27'3 2.5
2017-Jan-18 17:32N 47°16' W 122°24'0 0.3
2017-Jan-18 16:33N 47°16' W 122°25'0 0.0
2017-Jan-18 15:33N 47°16' W 122°25'0 0.1
2017-Jan-18 14:16N 47°16' W 122°24'3 4.0
2017-Jan-18 13:33N 47°18' W 122°28'3 2.2
2017-Jan-18 12:17N 47°16' W 122°24'0 0.1
2017-Jan-18 11:33N 47°16' W 122°25'0 0.0
2017-Jan-18 10:31N 47°16' W 122°25'0 0.0
2017-Jan-18 09:33N 47°16' W 122°25'0 0.0
2017-Jan-18 08:33N 47°16' W 122°25'0 0.0
2017-Jan-18 07:17N 47°16' W 122°25'0 0.3
2017-Jan-18 06:15N 47°16' W 122°24'0 0.4
2017-Jan-18 05:33N 47°16' W 122°25'1 1.5
2017-Jan-18 04:33N 47°17' W 122°26'1 0.4
2017-Jan-18 01:11N 47°17' W 122°25'5 8.4
2017-Jan-18 00:33N 47°22' W 122°24'1111.2
2017-Jan-17 23:33N 47°33' W 122°25'3 3.1
2017-Jan-17 22:33N 47°33' W 122°21'0 0.0
2017-Jan-17 21:33N 47°33' W 122°21'0 0.0
2017-Jan-17 20:33N 47°33' W 122°21'0 0.0
2017-Jan-17 19:33N 47°33' W 122°21'0 0.0
2017-Jan-17 18:32N 47°33' W 122°21'0 0.0
2017-Jan-17 17:33N 47°33' W 122°21'0 0.0
2017-Jan-17 16:33N 47°33' W 122°21'0 0.0
2017-Jan-17 15:34N 47°33' W 122°21'0 0.0
2017-Jan-17 14:33N 47°33' W 122°21'0 0.0
2017-Jan-17 13:33N 47°33' W 122°21'0 0.0
2017-Jan-17 12:32N 47°33' W 122°21'0 0.0
2017-Jan-17 11:33N 47°33' W 122°21'0 0.0
2017-Jan-17 10:33N 47°33' W 122°21'0 0.0
2017-Jan-17 09:33N 47°33' W 122°21'0 0.0
2017-Jan-17 08:32N 47°33' W 122°21'0 0.0
2017-Jan-17 07:33N 47°33' W 122°21'0 0.0
2017-Jan-17 06:33N 47°33' W 122°21'0 0.0
2017-Jan-17 05:33N 47°33' W 122°21'0 0.0
2017-Jan-17 04:34N 47°33' W 122°21'0 0.0
2017-Jan-17 03:33N 47°33' W 122°21'0 0.0
2017-Jan-17 02:33N 47°33' W 122°21'1 1.1
2017-Jan-17 01:34N 47°34' W 122°21'6 5.5
2017-Jan-17 00:33N 47°29' W 122°24'9 8.7
2017-Jan-16 23:33N 47°20' W 122°24'4 3.7
2017-Jan-16 22:33N 47°18' W 122°29'5 4.5
2017-Jan-16 21:32N 47°15' W 122°34'4 0.8
2017-Jan-16 16:28N 47°11' W 122°36'8 8.9
2017-Jan-16 15:33N 47°19' W 122°33'4 4.5
2017-Jan-16 14:33N 47°18' W 122°27'10 9.5
2017-Jan-16 13:33N 47°27' W 122°23'8 8.0
2017-Jan-16 12:34N 47°35' W 122°22'2 1.9
2017-Jan-16 11:33N 47°33' W 122°21'0 0.0
2017-Jan-16 10:33N 47°33' W 122°21'0 0.0
2017-Jan-16 09:33N 47°33' W 122°21'0 0.0
2017-Jan-16 08:33N 47°33' W 122°21'0 0.0
2017-Jan-16 07:33N 47°33' W 122°21'0 0.0
2017-Jan-16 06:33N 47°33' W 122°21'0 0.0
2017-Jan-16 05:33N 47°33' W 122°21'0 0.0
2017-Jan-16 04:34N 47°33' W 122°21'0 0.0
2017-Jan-16 03:33N 47°33' W 122°21'0 0.0
2017-Jan-16 02:33N 47°33' W 122°21'0 0.0
2017-Jan-16 01:33N 47°33' W 122°21'0 0.0
2017-Jan-16 00:34N 47°33' W 122°21'0 0.0
2017-Jan-15 23:34N 47°33' W 122°21'0 0.0
2017-Jan-15 22:33N 47°33' W 122°21'0 0.0
2017-Jan-15 21:33N 47°33' W 122°21'0 0.0
2017-Jan-15 20:33N 47°33' W 122°21'0 0.0
2017-Jan-15 19:34N 47°33' W 122°21'0 0.0
2017-Jan-15 18:33N 47°33' W 122°21'0 0.0
2017-Jan-15 17:33N 47°33' W 122°21'0 0.0
2017-Jan-15 16:34N 47°33' W 122°21'0 0.0
2017-Jan-15 15:33N 47°33' W 122°21'0 0.0
2017-Jan-15 14:34N 47°33' W 122°21'0 0.0
2017-Jan-15 13:34N 47°33' W 122°21'0 0.0
2017-Jan-15 12:34N 47°33' W 122°21'0 0.0
2017-Jan-15 11:33N 47°33' W 122°21'0 0.0
2017-Jan-15 10:33N 47°33' W 122°21'0 0.0
2017-Jan-15 09:33N 47°33' W 122°21'0 0.0
2017-Jan-15 08:33N 47°33' W 122°21'0 0.0
2017-Jan-15 07:34N 47°33' W 122°21'0 0.0
2017-Jan-15 06:33N 47°33' W 122°21'0 0.0
2017-Jan-15 05:33N 47°33' W 122°21'0 0.0
2017-Jan-15 04:34N 47°33' W 122°21'0 0.0
2017-Jan-15 03:33N 47°33' W 122°21'0 0.0
2017-Jan-15 02:33N 47°33' W 122°21'0 0.0
2017-Jan-15 01:33N 47°33' W 122°21'0 0.0
2017-Jan-15 00:33N 47°33' W 122°21'0 0.0
2017-Jan-14 23:33N 47°33' W 122°21'0 0.0
2017-Jan-14 22:33N 47°33' W 122°21'0 0.0
2017-Jan-14 21:34N 47°33' W 122°21'0 0.0
2017-Jan-14 20:33N 47°33' W 122°21'0 0.0
2017-Jan-14 19:33N 47°33' W 122°21'0 0.0
2017-Jan-14 18:33N 47°33' W 122°21'0 0.0
2017-Jan-14 17:34N 47°33' W 122°21'0 0.0
2017-Jan-14 16:33N 47°33' W 122°21'0 0.0
2017-Jan-14 15:34N 47°33' W 122°21'0 0.0
2017-Jan-14 14:33N 47°33' W 122°21'0 0.0
2017-Jan-14 13:33N 47°33' W 122°21'0 0.0
2017-Jan-14 12:34N 47°33' W 122°21'0 0.0
2017-Jan-14 11:33N 47°33' W 122°21'0 0.0
2017-Jan-14 10:33N 47°33' W 122°21'0 0.0
2017-Jan-14 09:34N 47°33' W 122°21'0 0.0
2017-Jan-14 08:33N 47°33' W 122°21'0 0.0
2017-Jan-14 07:34N 47°33' W 122°21'0 0.0
2017-Jan-14 06:33N 47°33' W 122°21'0 0.0
2017-Jan-14 05:34N 47°33' W 122°21'0 0.0
2017-Jan-14 04:33N 47°33' W 122°21'0 0.0
2017-Jan-14 03:33N 47°33' W 122°21'0 0.0
2017-Jan-13 23:33N 47°33' W 122°21'0 0.0
2017-Jan-13 22:33N 47°33' W 122°21'0 0.0
2017-Jan-13 21:33N 47°33' W 122°21'0 0.0
2017-Jan-13 20:34N 47°33' W 122°21'0 0.0
2017-Jan-13 19:33N 47°33' W 122°21'0 0.0
2017-Jan-13 18:34N 47°33' W 122°21'0 0.0
2017-Jan-13 17:33N 47°33' W 122°21'0 0.0
2017-Jan-13 16:33N 47°33' W 122°21'0 0.0
2017-Jan-13 15:33N 47°33' W 122°21'0 0.0
2017-Jan-13 14:34N 47°33' W 122°21'0 0.0
2017-Jan-13 13:33N 47°33' W 122°21'0 0.0
2017-Jan-13 12:34N 47°33' W 122°21'0 0.0
2017-Jan-13 11:33N 47°33' W 122°21'0 0.0
2017-Jan-13 10:34N 47°33' W 122°21'0 0.0
2017-Jan-13 09:34N 47°33' W 122°21'0 0.0
2017-Jan-13 08:33N 47°33' W 122°21'0 0.0
2017-Jan-13 07:33N 47°33' W 122°21'0 0.0
2017-Jan-13 06:33N 47°33' W 122°21'0 0.0
2017-Jan-13 05:32N 47°33' W 122°21'0 0.0
2017-Jan-13 04:33N 47°33' W 122°21'0 0.0
2017-Jan-13 03:32N 47°33' W 122°21'0 0.0
2017-Jan-13 02:33N 47°33' W 122°21'0 0.0
2017-Jan-13 01:33N 47°33' W 122°21'0 0.0
2017-Jan-13 00:34N 47°33' W 122°21'0 0.0
2017-Jan-12 23:33N 47°33' W 122°21'0 0.0
2017-Jan-12 22:33N 47°33' W 122°21'0 0.0
2017-Jan-12 21:33N 47°33' W 122°21'0 0.0
2017-Jan-12 20:33N 47°33' W 122°21'0 0.0
2017-Jan-12 19:34N 47°33' W 122°21'0 0.0
2017-Jan-12 18:34N 47°33' W 122°21'0 0.0
2017-Jan-12 17:33N 47°33' W 122°21'0 0.0
2017-Jan-12 16:33N 47°33' W 122°21'0 0.0
2017-Jan-12 15:33N 47°33' W 122°21'0 0.0
2017-Jan-12 14:33N 47°33' W 122°21'0 0.0
2017-Jan-12 13:34N 47°33' W 122°21'0 0.0
2017-Jan-12 12:34N 47°33' W 122°21'0 0.0
2017-Jan-12 11:34N 47°33' W 122°21'0 0.0
2017-Jan-12 10:33N 47°33' W 122°21'0 0.0
2017-Jan-12 09:33N 47°33' W 122°21'0 0.0
2017-Jan-12 08:33N 47°33' W 122°21'0 0.0
2017-Jan-12 07:34N 47°33' W 122°21'0 0.0
2017-Jan-12 06:33N 47°33' W 122°21'0 0.0
2017-Jan-12 05:34N 47°33' W 122°21'0 0.0
2017-Jan-12 04:34N 47°33' W 122°21'0 0.0
2017-Jan-12 03:33N 47°33' W 122°21'0 0.0
2017-Jan-12 02:33N 47°33' W 122°21'0 0.0
2017-Jan-12 01:34N 47°33' W 122°21'0 0.0
2017-Jan-12 00:34N 47°33' W 122°21'0 0.0
2017-Jan-11 23:33N 47°33' W 122°21'0 0.0
2017-Jan-11 22:33N 47°33' W 122°21'0 0.0
2017-Jan-11 21:33N 47°33' W 122°21'0 0.0
2017-Jan-11 20:33N 47°33' W 122°21'0 0.0
2017-Jan-11 19:33N 47°33' W 122°21'0 0.0
2017-Jan-11 18:33N 47°33' W 122°21'0 0.0
2017-Jan-11 17:34N 47°33' W 122°21'0 0.0
2017-Jan-11 16:33N 47°33' W 122°21'0 0.0
2017-Jan-11 15:34N 47°33' W 122°21'0 0.0
2017-Jan-11 14:33N 47°33' W 122°21'0 0.0
2017-Jan-11 13:34N 47°33' W 122°21'0 0.0
2017-Jan-11 12:33N 47°33' W 122°21'0 0.0
2017-Jan-11 11:33N 47°33' W 122°21'0 0.0
2017-Jan-11 10:33N 47°33' W 122°21'0 0.0
2017-Jan-11 09:33N 47°33' W 122°21'0 0.0
2017-Jan-11 08:34N 47°33' W 122°21'0 0.0
2017-Jan-11 07:33N 47°33' W 122°21'0 0.0
2017-Jan-11 06:33N 47°33' W 122°21'0 0.0
2017-Jan-11 05:34N 47°33' W 122°21'0 0.0
2017-Jan-11 04:33N 47°33' W 122°21'0 0.0
2017-Jan-11 03:34N 47°33' W 122°21'0 0.0
2017-Jan-11 02:33N 47°33' W 122°21'0 0.0
2017-Jan-11 01:34N 47°33' W 122°21'0 0.0
2017-Jan-11 00:33N 47°33' W 122°21'0 0.0
2017-Jan-10 23:34N 47°33' W 122°21'  

Dump ship's entire track history